Addison, New York
Current Conditions -  °F | °C
As of 2:53 AM on Friday 31 Oct 2014 (Local Time) from KELM Reporting Station
Broken Clouds Broken Clouds  
Wind Chill: 32°   Ceiling: 4400
Heat Index: 32°   Visibility: 10mi
Dew Point: 30°   Wind: 0mph
Humidity: 92%   Direction: NA
Pressure: 30.01"   Gusts: NA
Location:  42.1°N, 77.23°W
Report Text: KELM 310653Z AUTO 00000KT 10SM BKN044 00/M01 A3001 RMK AO2 SLP169 T00001011 $
Loading
Personal Weather Stations






























Interactive Weather Map
Tropical Storm Tracking
New forecast layout! Learn more

10-Day Weather Forecast

Advertisements
Track Severe Weather on mobile